ADDS METAR Data INFO
IDs: Format: Raw Decoded Include TAF

Data at: 0028 UTC 23 Oct 2017

KC62 230015Z AUTO 18008KT 10SM SCT060 21/13 A3002 RMK AO2 T02150135
KC62 222355Z AUTO 17011G15KT 10SM BKN060 21/13 A3002 RMK AO2 T02170135
KC62 222335Z AUTO 18009KT 10SM SCT120 21/13 A3002 RMK AO2 T02150136
KC62 222315Z AUTO 17007KT 10SM SCT050 BKN120 22/13 A3002 RMK AO2 T02200137
KC62 222255Z AUTO 17007KT 10SM BKN050 OVC120 22/13 A3002 RMK AO2 T02250139
KC62 222235Z AUTO 17007KT 10SM SCT050 22/13 A3002 RMK AO2 T02230140
KC62 222215Z AUTO 19010KT 10SM SCT060 SCT120 23/13 A3001 RMK AO2 T02310140
KC62 222155Z AUTO 19008G15KT 10SM SCT060 BKN120 23/13 A3002 RMK AO2 T02350141
KC62 222135Z AUTO 19010G18KT 10SM SCT060 SCT120 23/13 A3002 RMK AO2 T02370140
KC62 222115Z AUTO 18013G19KT 10SM SCT100 24/13 A3002 RMK AO2 T02430140
KC62 222055Z AUTO 18010G16KT 10SM BKN100 24/14 A3002 RMK AO2 T02460145
KC62 222035Z AUTO 18012G17KT 10SM CLR 24/14 A3002 RMK AO2 T02460143
KC62 222015Z AUTO 17012G15KT 10SM CLR 24/14 A3002 RMK AO2 T02430144
KC62 221955Z AUTO 19012G17KT 10SM CLR 23/14 A3002 RMK AO2 T02380143
KC62 221935Z AUTO 20012KT 10SM CLR 24/14 A3003 RMK AO2 T02450144
KC62 221915Z AUTO 20016G20KT 10SM CLR 23/14 A3003 RMK AO2 T02380143
KC62 221855Z AUTO 20014G20KT 10SM SCT046 23/14 A3004 RMK AO2 T02350142
KC62 221835Z AUTO 21014KT 10SM SCT044 SCT050 23/14 A3004 RMK AO2 T02350142
KC62 221815Z AUTO 19010G14KT 10SM SCT044 BKN050 23/13 A3005 RMK AO2 T02350140
KC62 221755Z AUTO 19013G19KT 10SM BKN042 BKN050 23/13 A3007 RMK AO2 T02350136
KC62 221735Z AUTO 20017G23KT 10SM SCT040 SCT050 23/13 A3008 RMK AO2 T02360136
KC62 221715Z AUTO 19014KT 10SM SCT036 SCT045 23/13 A3009 RMK AO2 T02340137
KC62 221655Z AUTO 19012KT 10SM SCT037 SCT045 22/13 A3009 RMK AO2 T02270135
KC62 221635Z AUTO 19013G21KT 10SM SCT041 22/13 A3009 RMK AO2 T02220132
KC62 221615Z AUTO 19015G20KT 10SM SCT041 22/13 A3010 RMK AO2 T02210133
KC62 221555Z AUTO 18011G15KT 10SM CLR 21/13 A3010 RMK AO2 T02180134
KC62 221535Z AUTO 17011G16KT 10SM CLR 20/12 A3010 RMK AO2 T02050129
KC62 221515Z AUTO 18010G18KT 10SM CLR 18/12 A3010 RMK AO2 T01870123
KC62 221455Z AUTO 18010G15KT 10SM CLR 18/12 A3011 RMK AO2 T01820120
KC62 221435Z AUTO 18009KT 10SM CLR 17/11 A3012 RMK AO2 T01720113
KC62 221415Z AUTO 19010G15KT 160V220 10SM CLR 17/11 A3013 RMK AO2 T01720110
KC62 221355Z AUTO 18008KT 10SM CLR 16/10 A3013 RMK AO2 T01680106
KC62 221335Z AUTO 18008KT 10SM CLR 15/10 A3013 RMK AO2 T01570100
KC62 221315Z AUTO 17007KT 10SM CLR 15/09 A3013 RMK AO2 T01500096
KC62 221255Z AUTO 16007KT 10SM CLR 14/09 A3012 RMK AO2 T01450094
KC62 221235Z AUTO 17007KT 10SM CLR 13/09 A3011 RMK AO2 T01400092
KC62 221215Z AUTO 18006KT 10SM CLR 13/08 A3011 RMK AO2 T01370091
KC62 221155Z AUTO 17006KT 10SM CLR 13/08 A3011 RMK AO2 T01380090
KC62 221135Z AUTO 17007KT 10SM CLR 13/08 A3010 RMK AO2 T01380090
KC62 221115Z AUTO 18008KT 10SM CLR 13/08 A3010 RMK AO2 T01400088
KC62 221055Z AUTO 16008KT 10SM CLR 13/08 A3010 RMK AO2 T01400088
KC62 221035Z AUTO 17007KT 10SM CLR 14/08 A3010 RMK AO2 T01420087
KC62 221015Z AUTO 17006KT 10SM CLR 14/08 A3010 RMK AO2 T01450085
KC62 220955Z AUTO 17006KT 10SM CLR 14/08 A3010 RMK AO2 T01430085
KC62 220935Z AUTO 17007KT 10SM CLR 13/08 A3010 RMK AO2 T01400085
KC62 220915Z AUTO 15007KT 10SM CLR 13/08 A3010 RMK AO2 T01400085
KC62 220855Z AUTO 15007KT 10SM CLR 14/08 A3011 RMK AO2 T01450085
KC62 220835Z AUTO 17007KT 10SM CLR 15/08 A3012 RMK AO2 T01480084
KC62 220815Z AUTO 16008KT 10SM CLR 15/08 A3012 RMK AO2 T01500084
KC62 220755Z AUTO 17007KT 10SM CLR 15/08 A3013 RMK AO2 T01510084
KC62 220735Z AUTO 17007KT 10SM CLR 15/08 A3013 RMK AO2 T01550084
KC62 220715Z AUTO 17006KT 10SM CLR 15/08 A3014 RMK AO2 T01520085
KC62 220655Z AUTO 18005KT 10SM CLR 15/08 A3014 RMK AO2 T01500085
KC62 220635Z AUTO 18006KT 10SM CLR 15/08 A3014 RMK AO2 T01490085
KC62 220615Z AUTO 17006KT 10SM CLR 15/08 A3014 RMK AO2 T01510085
KC62 220555Z AUTO 17006KT 10SM CLR 15/08 A3014 RMK AO2 T01520085
KC62 220535Z AUTO 17006KT 10SM CLR 15/08 A3013 RMK AO2 T01560083
KC62 220515Z AUTO 18007KT 10SM CLR 15/08 A3014 RMK AO2 T01570082
KC62 220455Z AUTO 17007KT 10SM CLR 16/08 A3013 RMK AO2 T01580081
KC62 220435Z AUTO 17007KT 10SM CLR 16/07 A3013 RMK AO2 T01610080
KC62 220415Z AUTO 18008KT 10SM CLR 16/07 A3013 RMK AO2 T01660078
KC62 220355Z AUTO 18007G14KT 10SM CLR 16/07 A3014 RMK AO2 T01690076
KC62 220335Z AUTO 17010KT 10SM CLR 17/07 A3013 RMK AO2 T01700075
KC62 220315Z AUTO 17010KT 10SM CLR 17/07 A3014 RMK AO2 T01720075
KC62 220255Z AUTO 17009KT 10SM CLR 17/07 A3014 RMK AO2 T01750073
KC62 220235Z AUTO 18010KT 10SM CLR 17/07 A3015 RMK AO2 T01800073
KC62 220215Z AUTO 17009KT 10SM CLR 17/07 A3015 RMK AO2 T01800071
KC62 220155Z AUTO 17008KT 10SM CLR 18/07 A3015 RMK AO2 T01810071
KC62 220135Z AUTO 17006KT 10SM CLR 17/06 A3015 RMK AO2 T01800069
KC62 220115Z AUTO 17005KT 10SM CLR 18/06 A3015 RMK AO2 T01810065
KC62 220055Z AUTO 18007KT 10SM CLR 18/06 A3016 RMK AO2 T01810064
KC62 220035Z AUTO 17006KT 10SM CLR 18/06 A3015 RMK AO2 T01820063
KC62 220015Z AUTO 17006KT 10SM CLR 18/06 A3015 RMK AO2 T01850061
KC62 212355Z AUTO 16005KT 10SM CLR 18/06 A3014 RMK AO2 T01840062
KC62 212335Z AUTO 16005KT 10SM CLR 18/06 A3014 RMK AO2 T01880065
KC62 212315Z AUTO 16007KT 10SM CLR 19/06 A3014 RMK AO2 T01940064
KC62 212255Z AUTO 17007KT 10SM CLR 19/06 A3014 RMK AO2 T01960065
KC62 212235Z AUTO 18005KT 10SM CLR 20/06 A3014 RMK AO2 T01990067
KC62 212215Z AUTO 17006KT 10SM CLR 21/06 A3014 RMK AO2 T02160066
KC62 212155Z AUTO 20008KT 10SM CLR 21/06 A3014 RMK AO2 T02170065
KC62 212135Z AUTO 19005KT 10SM CLR 21/06 A3014 RMK AO2 T02170062
KC62 212115Z AUTO 18008G15KT 10SM CLR 22/05 A3014 RMK AO2 T02280056
KC62 212055Z AUTO 20009G17KT 10SM CLR 22/05 A3014 RMK AO2 T02290052
KC62 212035Z AUTO 20010KT 10SM CLR 23/05 A3014 RMK AO2 T02330052
KC62 212015Z AUTO 18011G14KT 10SM CLR 23/04 A3014 RMK AO2 T02320042
KC62 211955Z AUTO 20008G17KT 10SM CLR 23/05 A3014 RMK AO2 T02320053
KC62 211935Z AUTO 18011G14KT 10SM CLR 23/06 A3014 RMK AO2 T02350068
KC62 211915Z AUTO 19010G15KT 10SM CLR 24/07 A3015 RMK AO2 T02430076
KC62 211855Z AUTO 21010KT 10SM CLR 22/07 A3016 RMK AO2 T02300080
KC62 211835Z AUTO 19012G16KT 10SM CLR 23/07 A3016 RMK AO2 T02350079
KC62 211815Z AUTO 19011G18KT 10SM CLR 23/07 A3016 RMK AO2 T02370080
KC62 211755Z AUTO 19010G17KT 10SM CLR 22/08 A3017 RMK AO2 T02290081
KC62 211735Z AUTO 19009KT 10SM CLR 22/09 A3018 RMK AO2 T02200093
KC62 211715Z AUTO 20008KT 10SM CLR 21/10 A3019 RMK AO2 T02110097
KC62 211655Z AUTO 20008KT 10SM CLR 21/10 A3019 RMK AO2 T02130100
KC62 211635Z AUTO 20011KT 10SM CLR 21/10 A3019 RMK AO2 T02120103
KC62 211615Z AUTO 20008KT 10SM CLR 20/10 A3020 RMK AO2 T02000107
KC62 211555Z AUTO 19007KT 10SM CLR 19/11 A3020 RMK AO2 T01960113
KC62 211535Z AUTO 19007KT 10SM CLR 18/11 A3020 RMK AO2 T01850113
KC62 211515Z AUTO 20007KT 10SM CLR 17/11 A3020 RMK AO2 T01800111
KC62 211455Z AUTO 19006KT 10SM CLR 17/11 A3020 RMK AO2 T01720117
KC62 211435Z AUTO 19006KT 10SM CLR 16/11 A3020 RMK AO2 T01600112
KC62 211415Z AUTO 19005KT 10SM CLR 15/11 A3021 RMK AO2 T01570112
KC62 211355Z AUTO 19006KT 10SM CLR 15/11 A3021 RMK AO2 T01530113
KC62 211335Z AUTO 18005KT 10SM CLR 14/11 A3020 RMK AO2 T01460112
KC62 211315Z AUTO 18005KT 10SM CLR 13/11 A3020 RMK AO2 T01390108
KC62 211255Z AUTO 18006KT 10SM CLR 12/10 A3020 RMK AO2 T01260105
KC62 211235Z AUTO 17006KT 10SM CLR 11/10 A3019 RMK AO2 T01150100